Time;durP1;ratioP1;P1;durP2;ratioP2;P2;SDS_P1;SDS_P2;PMS_P1;PMS_P2;Temp;Humidity;BMP_temperature;BMP_pressure;BME280_temperature;BME280_humidity;BME280_pressure;Samples;Min_cycle;Max_cycle;Signal;HPM_P1;HPM_P2
2024/01/31 06:18:40;;;;;;;;;;;;;;;7.97;69.14;98562.16;4210691;27;10392;-66
2024/01/31 06:20:44;;;;;;;;;;;;;;;8.25;68.82;98565.84;4207517;28;5950;-67
2024/01/31 06:22:47;;;;;;;;;;;;;;;8.48;68.54;98566.47;4204798;28;5852;-67
2024/01/31 06:24:50;;;;;;;;;;;;;;;8.65;67.79;98569.28;4204928;28;5744;-67
2024/01/31 06:26:53;;;;;;;;;;;;;;;8.79;67.65;98569.84;4207331;28;5894;-67
2024/01/31 06:28:56;;;;;;;;;;;;;;;8.92;67.41;98570.38;4211875;28;5710;-68
2024/01/31 06:31:03;;;;;;;;;;;;;;;9.01;67.24;98569.56;4214196;28;5838;-70
2024/01/31 06:33:06;;;;;;;;;;;;;;;9.11;66.90;98570.38;4209716;28;6392;-70
2024/01/31 06:35:10;;;;;;;;;;;;;;;9.17;66.72;98576.88;4206400;28;5690;-71
2024/01/31 06:37:14;;;;;;;;;;;;;;;9.21;66.69;98576.47;4214231;28;5703;-70
2024/01/31 06:39:17;;;;;;;;;;;;;;;9.25;66.59;98579.66;4210171;28;5706;-71
2024/01/31 06:41:20;;;;;;;;;;;;;;;9.28;66.16;98572.28;4214549;28;5786;-71
2024/01/31 06:43:22;;;;;;;;;;;;;;;9.32;66.24;98578.97;4214085;28;5818;-71
2024/01/31 06:45:26;;;;;;;;;;;;;;;9.34;66.13;98574.38;4214240;28;6417;-71
2024/01/31 06:47:28;;;;;;;;;;;;;;;9.38;65.92;98571.44;4214086;28;5823;-71
2024/01/31 06:49:30;;;;;;;;;;;;;;;9.40;65.76;98569.47;4204685;28;5632;-72
2024/01/31 06:51:35;;;;;;;;;;;;;;;9.42;65.50;98583.41;4214183;28;5763;-71
2024/01/31 06:53:38;;;;;;;;;;;;;;;9.43;65.55;98587.69;4206154;28;5675;-71
2024/01/31 06:55:41;;;;;;;;;;;;;;;9.45;65.63;98583.09;4214403;28;5712;-72
2024/01/31 06:57:44;;;;;;;;;;;;;;;9.46;65.16;98584.78;4214095;28;5703;-70
2024/01/31 06:59:47;;;;;;;;;;;;;;;9.46;64.96;98590.03;4209558;28;5777;-71
2024/01/31 07:01:50;;;;;;;;;;;;;;;9.49;65.06;98589.75;4208937;28;5712;-71
2024/01/31 07:03:53;;;;;;;;;;;;;;;9.48;65.01;98588.09;4214113;28;5763;-71
2024/01/31 07:05:56;;;;;;;;;;;;;;;9.49;64.81;98587.13;4213741;28;5782;-71
2024/01/31 07:08:00;;;;;;;;;;;;;;;9.49;64.77;98587.94;4213348;28;5812;-71
2024/01/31 07:10:04;;;;;;;;;;;;;;;9.50;64.90;98591.41;4213827;28;5687;-71
2024/01/31 07:12:07;;;;;;;;;;;;;;;9.50;64.83;98596.69;4213996;28;5691;-71
2024/01/31 07:14:10;;;;;;;;;;;;;;;9.50;64.37;98594.88;4213939;28;5691;-71
2024/01/31 07:16:14;;;;;;;;;;;;;;;9.52;64.27;98605.34;4213711;28;5875;-71
2024/01/31 07:18:17;;;;;;;;;;;;;;;9.52;64.51;98605.34;4209275;28;5691;-70
2024/01/31 07:20:20;;;;;;;;;;;;;;;9.51;64.20;98604.50;4202424;28;5684;-71
2024/01/31 07:22:23;;;;;;;;;;;;;;;9.52;64.30;98613.25;4186252;28;5724;-71
2024/01/31 07:24:28;;;;;;;;;;;;;;;9.52;64.12;98626.47;4200954;28;5852;-71
2024/01/31 07:26:32;;;;;;;;;;;;;;;9.53;64.30;98620.19;4202538;28;5791;-71
2024/01/31 07:28:36;;;;;;;;;;;;;;;9.53;63.99;98620.19;4202099;28;5687;-71
2024/01/31 07:30:40;;;;;;;;;;;;;;;9.55;64.06;98619.06;4202427;28;5724;-71
2024/01/31 07:32:43;;;;;;;;;;;;;;;9.55;63.88;98610.31;4202311;28;5699;-71
2024/01/31 07:34:44;;;;;;;;;;;;;;;9.58;63.66;98615.31;4201717;28;5702;-71
2024/01/31 07:36:48;;;;;;;;;;;;;;;9.58;63.64;98610.03;4201022;28;5680;-71
2024/01/31 07:38:51;;;;;;;;;;;;;;;9.58;63.46;98602.94;4199693;28;5711;-70
2024/01/31 07:40:55;;;;;;;;;;;;;;;9.60;63.82;98608.06;4202539;28;5933;-71
2024/01/31 07:42:59;;;;;;;;;;;;;;;9.62;63.60;98611.41;4202458;28;5707;-71
2024/01/31 07:45:01;;;;;;;;;;;;;;;9.63;63.66;98611.28;4199691;28;6467;-71
2024/01/31 07:47:04;;;;;;;;;;;;;;;9.65;63.83;98615.59;4202031;28;6376;-71
2024/01/31 07:49:08;;;;;;;;;;;;;;;9.66;63.56;98615.44;4200717;28;5716;-71
2024/01/31 07:51:11;;;;;;;;;;;;;;;9.69;63.68;98617.78;4202217;28;5707;-71
2024/01/31 07:53:14;;;;;;;;;;;;;;;9.70;63.35;98627.38;4200965;28;5853;-71
2024/01/31 07:55:18;;;;;;;;;;;;;;;9.72;63.34;98630.69;4200740;28;5687;-71
2024/01/31 07:57:22;;;;;;;;;;;;;;;9.73;63.45;98635.00;4202365;28;5798;-71
2024/01/31 07:59:25;;;;;;;;;;;;;;;9.76;63.32;98631.28;4200411;28;5775;-71
2024/01/31 08:01:28;;;;;;;;;;;;;;;9.77;63.22;98627.66;4201985;28;5691;-71
2024/01/31 08:03:34;;;;;;;;;;;;;;;9.78;63.49;98627.50;4202169;28;5691;-70
2024/01/31 08:05:38;;;;;;;;;;;;;;;9.81;63.08;98627.19;4198300;28;5812;-71
2024/01/31 08:07:43;;;;;;;;;;;;;;;9.83;63.40;98630.53;4199785;28;5667;-71
2024/01/31 08:09:45;;;;;;;;;;;;;;;9.86;63.27;98634.72;4198429;28;5818;-70
2024/01/31 08:11:49;;;;;;;;;;;;;;;9.88;63.00;98632.75;4192383;28;5953;-67
2024/01/31 08:13:53;;;;;;;;;;;;;;;9.90;63.01;98636.09;4197041;28;5825;-67
2024/01/31 08:15:56;;;;;;;;;;;;;;;9.91;62.98;98628.00;4201424;28;5684;-67
2024/01/31 08:17:59;;;;;;;;;;;;;;;9.92;62.98;98626.19;4190893;28;5846;-67
2024/01/31 08:20:03;;;;;;;;;;;;;;;9.96;62.86;98637.31;4190423;28;5808;-67
2024/01/31 08:22:06;;;;;;;;;;;;;;;9.97;62.96;98633.72;4190104;28;5699;-67
2024/01/31 08:24:09;;;;;;;;;;;;;;;9.96;63.13;98634.66;4191779;28;5082;-73
2024/01/31 08:26:17;;;;;;;;;;;;;;;10.00;62.78;98636.88;4197174;28;5714;-74
2024/01/31 08:28:19;;;;;;;;;;;;;;;10.02;62.69;98639.38;4200556;28;5674;-74
2024/01/31 08:30:24;;;;;;;;;;;;;;;10.05;62.73;98641.72;4200052;28;5827;-72
2024/01/31 08:32:28;;;;;;;;;;;;;;;10.07;62.64;98640.59;4195322;28;5703;-72
2024/01/31 08:34:31;;;;;;;;;;;;;;;10.11;62.64;98635.88;4200832;28;5841;-72
2024/01/31 08:36:36;;;;;;;;;;;;;;;10.12;62.59;98630.44;4190917;28;5865;-72
2024/01/31 08:38:43;;;;;;;;;;;;;;;10.14;62.76;98632.94;4186770;28;5103;-70
2024/01/31 08:40:45;;;;;;;;;;;;;;;10.15;62.57;98635.44;4191122;28;5704;-70
2024/01/31 08:42:48;;;;;;;;;;;;;;;10.18;62.87;98635.13;4192878;28;5704;-71
2024/01/31 08:44:52;;;;;;;;;;;;;;;10.20;62.86;98640.28;4194310;28;5805;-76
2024/01/31 08:46:55;;;;;;;;;;;;;;;10.20;62.83;98635.84;4200874;28;5833;-76
2024/01/31 08:49:20;;;;;;;;;;;;;;;10.23;62.39;98641.84;4191436;28;5830;-76
2024/01/31 08:51:24;;;;;;;;;;;;;;;10.24;62.37;98641.69;4195096;28;5798;-76
2024/01/31 08:53:26;;;;;;;;;;;;;;;10.25;62.32;98640.72;4188470;28;5823;-68
2024/01/31 08:55:29;;;;;;;;;;;;;;;10.25;62.36;98638.06;4199939;28;5691;-68
2024/01/31 08:57:33;;;;;;;;;;;;;;;10.27;62.49;98638.75;4198541;28;5848;-67
2024/01/31 08:59:36;;;;;;;;;;;;;;;10.26;62.22;98634.44;4193529;28;5749;-68
2024/01/31 09:01:43;;;;;;;;;;;;;;;10.28;62.21;98642.22;4187640;28;6404;-67
2024/01/31 09:03:48;;;;;;;;;;;;;;;10.26;62.63;98638.91;4190973;28;5903;-69
2024/01/31 09:05:51;;;;;;;;;;;;;;;10.25;62.39;98640.72;4191145;28;5736;-66
2024/01/31 09:08:00;;;;;;;;;;;;;;;10.25;62.36;98646.00;4193018;28;5782;-70
2024/01/31 09:10:04;;;;;;;;;;;;;;;10.25;62.52;98645.16;4199598;28;6641;-68
2024/01/31 09:12:08;;;;;;;;;;;;;;;10.24;62.47;98638.22;4196944;28;5671;-67
2024/01/31 09:14:11;;;;;;;;;;;;;;;10.26;62.05;98645.00;4198334;28;5715;-70
2024/01/31 09:16:14;;;;;;;;;;;;;;;10.26;62.34;98647.66;4200271;28;5690;-70
2024/01/31 09:18:16;;;;;;;;;;;;;;;10.27;62.18;98649.31;4192369;28;6303;-68
2024/01/31 09:20:21;;;;;;;;;;;;;;;10.28;62.08;98648.34;4199558;28;5810;-69
2024/01/31 09:22:24;;;;;;;;;;;;;;;10.29;61.94;98647.34;4199086;28;6540;-66
2024/01/31 09:24:28;;;;;;;;;;;;;;;10.30;62.08;98651.66;4193824;28;5707;-74
2024/01/31 09:26:31;;;;;;;;;;;;;;;10.29;61.93;98644.72;4199214;28;5687;-75
2024/01/31 09:28:34;;;;;;;;;;;;;;;10.30;62.13;98643.72;4194534;28;5987;-72
2024/01/31 09:30:38;;;;;;;;;;;;;;;10.32;62.07;98647.09;4192087;28;5750;-73
2024/01/31 09:32:40;;;;;;;;;;;;;;;10.32;62.00;98644.44;4199810;28;5718;-73
2024/01/31 09:34:44;;;;;;;;;;;;;;;10.31;61.78;98644.59;4183864;28;5709;-72
2024/01/31 09:36:49;;;;;;;;;;;;;;;10.33;61.71;98634.69;4200589;28;5727;-82
2024/01/31 09:38:52;;;;;;;;;;;;;;;10.33;61.75;98646.09;4191281;28;5690;-81
2024/01/31 09:40:57;;;;;;;;;;;;;;;10.34;61.71;98645.13;4197488;28;5794;-81
2024/01/31 09:42:59;;;;;;;;;;;;;;;10.34;61.81;98644.28;4201238;28;5834;-80
2024/01/31 09:45:03;;;;;;;;;;;;;;;10.34;61.83;98645.13;4192446;28;5765;-81
2024/01/31 09:47:09;;;;;;;;;;;;;;;10.33;61.74;98643.47;4196326;28;5890;-81
2024/01/31 09:49:12;;;;;;;;;;;;;;;10.35;61.80;98641.50;4191133;28;6400;-72
2024/01/31 09:51:20;;;;;;;;;;;;;;;10.36;61.37;98639.69;4200054;28;5703;-69
2024/01/31 09:53:25;;;;;;;;;;;;;;;10.36;61.65;98643.16;4191692;28;5877;-68
2024/01/31 09:55:29;;;;;;;;;;;;;;;10.37;61.29;98644.00;4198528;28;5682;-68
2024/01/31 09:57:31;;;;;;;;;;;;;;;10.38;61.29;98633.25;4198004;28;5699;-68
2024/01/31 09:59:35;;;;;;;;;;;;;;;10.37;61.26;98631.59;4185257;28;5687;-65
2024/01/31 10:01:40;;;;;;;;;;;;;;;10.39;61.41;98631.44;4192453;28;5830;-76
2024/01/31 10:03:43;;;;;;;;;;;;;;;10.39;61.26;98634.94;4195586;28;5687;-76
2024/01/31 10:05:47;;;;;;;;;;;;;;;10.39;61.47;98629.63;4189205;28;5791;-76
2024/01/31 10:07:50;;;;;;;;;;;;;;;10.40;61.12;98623.38;4191163;28;5699;-77
2024/01/31 10:09:56;;;;;;;;;;;;;;;10.40;60.78;98623.38;4190657;28;5897;-68
2024/01/31 10:12:00;;;;;;;;;;;;;;;10.40;60.92;98620.72;4198915;28;5683;-64
2024/01/31 10:14:03;;;;;;;;;;;;;;;10.41;61.39;98614.47;4193041;28;5782;-71
2024/01/31 10:16:06;;;;;;;;;;;;;;;10.42;60.85;98623.25;4195013;28;5762;-71
2024/01/31 10:18:11;;;;;;;;;;;;;;;10.42;60.80;98628.53;4191038;28;5807;-64
2024/01/31 10:20:14;;;;;;;;;;;;;;;10.42;61.19;98637.31;4195971;28;5914;-65
2024/01/31 10:22:17;;;;;;;;;;;;;;;10.43;60.84;98641.59;4200100;28;6472;-67
2024/01/31 10:24:20;;;;;;;;;;;;;;;10.40;60.75;98638.41;4193322;28;5687;-67
2024/01/31 10:26:27;;;;;;;;;;;;;;;10.40;61.20;98641.88;4188491;28;5770;-66
2024/01/31 10:28:32;;;;;;;;;;;;;;;10.41;60.81;98634.78;4193292;28;6278;-66
2024/01/31 10:30:40;;;;;;;;;;;;;;;10.42;60.62;98631.19;4199850;28;5739;-64
2024/01/31 10:32:46;;;;;;;;;;;;;;;10.43;60.75;98628.38;4195446;28;5874;-66
2024/01/31 10:34:50;;;;;;;;;;;;;;;10.45;60.85;98629.06;4194524;28;5710;-67
2024/01/31 10:37:15;;;;;;;;;;;;;;;10.48;60.99;98622.66;4195398;28;5691;-63
2024/01/31 10:39:40;;;;;;;;;;;;;;;10.47;60.86;98635.03;4198641;28;5766;-62
2024/01/31 10:41:44;;;;;;;;;;;;;;;10.47;60.96;98627.09;4191455;28;5716;-62
2024/01/31 10:43:49;;;;;;;;;;;;;;;10.48;60.89;98626.13;4191515;28;5903;-62
2024/01/31 10:45:53;;;;;;;;;;;;;;;10.52;60.83;98625.81;4193162;28;5702;-63
2024/01/31 10:47:56;;;;;;;;;;;;;;;10.54;60.75;98624.72;4189160;28;5119;-63
2024/01/31 10:49:59;;;;;;;;;;;;;;;10.53;60.31;98609.78;4191309;28;5846;-63
2024/01/31 10:52:07;;;;;;;;;;;;;;;10.54;60.74;98615.94;4195238;28;5897;-62
2024/01/31 10:54:12;;;;;;;;;;;;;;;10.54;60.48;98624.72;4197921;28;5778;-63
2024/01/31 10:56:18;;;;;;;;;;;;;;;10.56;60.69;98613.97;4197451;28;5706;-63
2024/01/31 10:58:24;;;;;;;;;;;;;;;10.58;60.57;98604.06;4195908;28;5687;-62
2024/01/31 11:00:28;;;;;;;;;;;;;;;10.58;60.53;98607.56;4198045;28;5742;-63
2024/01/31 11:02:34;;;;;;;;;;;;;;;10.61;60.65;98609.06;4198201;28;5707;-62
2024/01/31 11:04:39;;;;;;;;;;;;;;;10.58;60.71;98604.06;4194524;28;5742;-63
2024/01/31 11:06:43;;;;;;;;;;;;;;;10.61;60.33;98603.78;4193274;28;7664;-63
2024/01/31 11:08:48;;;;;;;;;;;;;;;10.62;60.52;98606.25;4187202;28;5198;-63
2024/01/31 11:10:51;;;;;;;;;;;;;;;10.63;60.45;98601.81;4196816;28;5723;-63
2024/01/31 11:12:59;;;;;;;;;;;;;;;10.63;60.44;98607.94;4199418;28;5785;-63
2024/01/31 11:15:06;;;;;;;;;;;;;;;10.63;60.26;98597.34;4190141;28;5698;-62
2024/01/31 11:17:11;;;;;;;;;;;;;;;10.63;60.09;98596.50;4201445;28;5687;-63
2024/01/31 11:19:20;;;;;;;;;;;;;;;10.63;60.20;98585.94;4194788;28;5728;-63
2024/01/31 11:21:24;;;;;;;;;;;;;;;10.62;60.33;98585.09;4194535;28;6529;-62
2024/01/31 11:23:27;;;;;;;;;;;;;;;10.63;60.33;98580.66;4190812;28;5720;-63
2024/01/31 11:25:33;;;;;;;;;;;;;;;10.61;60.35;98579.97;4198660;28;5789;-63
2024/01/31 11:27:37;;;;;;;;;;;;;;;10.62;60.17;98573.69;4197376;28;5710;-63
2024/01/31 11:29:40;;;;;;;;;;;;;;;10.61;60.35;98575.50;4192539;28;5815;-63
2024/01/31 11:31:45;;;;;;;;;;;;;;;10.60;60.22;98575.66;4199159;28;5781;-64
2024/01/31 11:33:49;;;;;;;;;;;;;;;10.63;59.96;98567.41;4196057;28;5687;-64
2024/01/31 11:35:52;;;;;;;;;;;;;;;10.64;60.25;98569.09;4198735;28;5679;-63
2024/01/31 11:37:56;;;;;;;;;;;;;;;10.65;60.13;98571.59;4189901;28;5881;-68
2024/01/31 11:39:59;;;;;;;;;;;;;;;10.66;60.23;98561.84;4196510;28;6432;-66
2024/01/31 11:42:04;;;;;;;;;;;;;;;10.63;60.15;98551.56;4191387;28;5812;-67
2024/01/31 11:44:07;;;;;;;;;;;;;;;10.63;60.10;98548.91;4183003;28;6449;-67
2024/01/31 11:46:11;;;;;;;;;;;;;;;10.62;60.05;98560.47;4192179;28;5700;-66
2024/01/31 11:48:15;;;;;;;;;;;;;;;10.60;59.88;98554.50;4191846;28;5909;-66
2024/01/31 11:50:19;;;;;;;;;;;;;;;10.58;59.39;98540.59;4187220;28;6913;-68
2024/01/31 11:52:22;;;;;;;;;;;;;;;10.57;59.87;98538.94;4188194;28;5826;-64
2024/01/31 11:54:24;;;;;;;;;;;;;;;10.58;59.81;98535.31;4189511;28;5893;-63
2024/01/31 11:56:27;;;;;;;;;;;;;;;10.59;59.88;98537.81;4192719;28;5929;-64
2024/01/31 11:58:31;;;;;;;;;;;;;;;10.60;59.88;98528.06;4199607;28;5698;-64
2024/01/31 12:00:34;;;;;;;;;;;;;;;10.60;59.59;98520.13;4201755;28;5723;-65
2024/01/31 12:02:38;;;;;;;;;;;;;;;10.61;59.61;98524.44;4191790;28;5946;-65
2024/01/31 12:04:51;;;;;;;;;;;;;;;10.62;59.64;98523.44;4201636;28;5148;-65
2024/01/31 12:07:03;;;;;;;;;;;;;;;10.64;59.64;98524.13;4201235;28;5908;-64
2024/01/31 12:09:06;;;;;;;;;;;;;;;10.63;59.55;98528.56;4199054;28;5769;-64
2024/01/31 12:11:10;;;;;;;;;;;;;;;10.64;59.52;98527.59;4201438;28;5683;-65
2024/01/31 12:13:13;;;;;;;;;;;;;;;10.67;59.48;98526.47;4199779;28;6380;-64
2024/01/31 12:15:15;;;;;;;;;;;;;;;10.68;59.49;98534.25;4201510;28;5898;-64
2024/01/31 12:17:21;;;;;;;;;;;;;;;10.70;59.78;98523.53;4201216;28;6471;-64
2024/01/31 12:19:27;;;;;;;;;;;;;;;10.71;59.76;98515.44;4199832;28;5789;-64
2024/01/31 12:21:39;;;;;;;;;;;;;;;10.72;59.59;98511.81;4201556;28;5715;-64
2024/01/31 12:23:42;;;;;;;;;;;;;;;10.73;59.62;98524.03;4196293;28;5902;-64
2024/01/31 12:25:45;;;;;;;;;;;;;;;10.76;59.37;98521.13;4201441;28;5711;-63
2024/01/31 12:27:48;;;;;;;;;;;;;;;10.76;59.20;98517.66;4199236;28;5764;-63
2024/01/31 12:29:51;;;;;;;;;;;;;;;10.73;59.07;98521.41;4201167;28;5906;-63
2024/01/31 12:31:54;;;;;;;;;;;;;;;10.73;59.56;98515.28;4201324;28;5841;-63
2024/01/31 12:33:57;;;;;;;;;;;;;;;10.71;59.40;98498.75;4198880;28;5711;-64
2024/01/31 12:36:00;;;;;;;;;;;;;;;10.73;59.21;98491.47;4189459;28;5707;-64
2024/01/31 12:38:05;;;;;;;;;;;;;;;10.73;59.02;98488.81;4190830;28;5893;-64
2024/01/31 12:40:09;;;;;;;;;;;;;;;10.71;59.13;98488.97;4200523;28;5742;-67
2024/01/31 12:42:12;;;;;;;;;;;;;;;10.71;59.17;98477.56;4195500;28;5718;-66
2024/01/31 12:44:16;;;;;;;;;;;;;;;10.69;59.00;98474.25;4194583;28;5778;-65
2024/01/31 12:46:20;;;;;;;;;;;;;;;10.69;58.85;98474.25;4195726;28;5695;-68
2024/01/31 12:48:23;;;;;;;;;;;;;;;10.70;58.65;98466.16;4197527;28;5707;-68
2024/01/31 12:50:27;;;;;;;;;;;;;;;10.69;59.04;98471.63;4199462;28;5714;-64
2024/01/31 12:52:30;;;;;;;;;;;;;;;10.70;58.79;98463.53;4199391;28;5790;-65
2024/01/31 12:54:35;;;;;;;;;;;;;;;10.72;58.81;98458.06;4200453;28;5679;-66
2024/01/31 12:56:39;;;;;;;;;;;;;;;10.74;58.43;98450.81;4192568;28;6713;-63
2024/01/31 12:58:43;;;;;;;;;;;;;;;10.75;58.53;98449.81;4193311;28;5691;-63
2024/01/31 13:00:45;;;;;;;;;;;;;;;10.75;58.59;98441.88;4195936;28;5691;-63
2024/01/31 13:02:48;;;;;;;;;;;;;;;10.74;58.34;98440.22;4192783;28;5846;-63
2024/01/31 13:04:52;;;;;;;;;;;;;;;10.74;58.45;98445.53;4200786;28;5770;-63
2024/01/31 13:06:55;;;;;;;;;;;;;;;10.73;58.51;98438.56;4200540;28;5698;-63
2024/01/31 13:08:58;;;;;;;;;;;;;;;10.76;58.69;98443.56;4199743;28;5699;-63
2024/01/31 13:11:04;;;;;;;;;;;;;;;10.76;58.64;98440.94;4200506;28;5707;-62
2024/01/31 13:13:07;;;;;;;;;;;;;;;10.76;58.63;98443.56;4198292;28;6368;-63
2024/01/31 13:15:10;;;;;;;;;;;;;;;10.76;58.64;98441.75;4200481;28;5806;-63
2024/01/31 13:17:14;;;;;;;;;;;;;;;10.79;58.55;98445.91;4199707;28;5844;-63
2024/01/31 13:19:20;;;;;;;;;;;;;;;10.79;58.31;98438.78;4198149;28;5772;-62
2024/01/31 13:21:24;;;;;;;;;;;;;;;10.79;58.46;98437.97;4193772;28;5944;-62
2024/01/31 13:23:26;;;;;;;;;;;;;;;10.80;58.48;98439.63;4197697;28;5813;-63
2024/01/31 13:25:29;;;;;;;;;;;;;;;10.80;58.28;98439.63;4200117;28;5750;-63
2024/01/31 13:27:34;;;;;;;;;;;;;;;10.80;58.50;98436.97;4198333;28;5676;-63
2024/01/31 13:29:37;;;;;;;;;;;;;;;10.82;58.21;98432.34;4192200;28;5683;-61
2024/01/31 13:31:41;;;;;;;;;;;;;;;10.81;58.41;98422.75;4200191;28;5793;-63
2024/01/31 13:33:44;;;;;;;;;;;;;;;10.81;58.37;98419.28;4197924;28;5695;-63
2024/01/31 13:35:47;;;;;;;;;;;;;;;10.81;58.36;98422.75;4200086;28;5855;-63
2024/01/31 13:37:51;;;;;;;;;;;;;;;10.83;58.40;98423.44;4197321;28;6978;-62
2024/01/31 13:39:54;;;;;;;;;;;;;;;10.83;58.14;98420.78;4198237;28;5959;-63
2024/01/31 13:42:01;;;;;;;;;;;;;;;10.82;58.16;98411.19;4197359;28;5821;-63
2024/01/31 13:44:10;;;;;;;;;;;;;;;10.83;58.11;98406.72;4194535;28;5759;-64
2024/01/31 13:46:27;;;;;;;;;;;;;;;10.84;58.01;98403.94;4174214;28;5740;-67
2024/01/31 13:48:40;;;;;;;;;;;;;;;10.84;58.20;98403.09;4196757;28;5802;-72
2024/01/31 13:50:57;;;;;;;;;;;;;;;10.84;58.00;98411.88;4175907;28;5873;-73
2024/01/31 13:53:19;;;;;;;;;;;;;;;10.85;58.06;98405.59;4196944;28;5683;-74
2024/01/31 13:55:29;;;;;;;;;;;;;;;10.86;58.01;98407.25;4199861;28;5836;-72
2024/01/31 13:57:45;;;;;;;;;;;;;;;10.87;57.89;98408.06;4197098;28;5876;-73
2024/01/31 13:59:51;;;;;;;;;;;;;;;10.88;58.20;98404.47;4199714;28;5086;-74
2024/01/31 14:02:06;;;;;;;;;;;;;;;10.88;58.09;98400.00;4200009;28;7707;-75
2024/01/31 14:04:26;;;;;;;;;;;;;;;10.90;58.00;98402.50;4182483;28;5825;-75
2024/01/31 14:06:35;;;;;;;;;;;;;;;10.90;57.88;98405.97;4184139;28;6517;-74
2024/01/31 14:08:38;;;;;;;;;;;;;;;10.90;57.85;98398.03;4189980;28;6440;-73
2024/01/31 14:10:41;;;;;;;;;;;;;;;10.91;57.83;98398.84;4191029;28;5762;-74
2024/01/31 14:12:45;;;;;;;;;;;;;;;10.91;58.08;98394.41;4188719;28;5768;-74
2024/01/31 14:14:48;;;;;;;;;;;;;;;10.92;57.94;98389.94;4193369;28;5806;-74
2024/01/31 14:16:53;;;;;;;;;;;;;;;10.94;58.01;98394.06;4189774;28;5714;-75
2024/01/31 14:18:56;;;;;;;;;;;;;;;10.95;58.10;98393.09;4198994;28;6405;-76
2024/01/31 14:20:59;;;;;;;;;;;;;;;10.96;57.93;98400.03;4197828;28;5682;-75
2024/01/31 14:23:03;;;;;;;;;;;;;;;10.97;57.85;98391.09;4191586;28;5686;-74
2024/01/31 14:25:14;;;;;;;;;;;;;;;10.98;57.80;98392.75;4198927;28;5679;-75
2024/01/31 14:27:18;;;;;;;;;;;;;;;10.99;57.85;98389.16;4198528;28;5809;-75
2024/01/31 14:29:21;;;;;;;;;;;;;;;11.02;57.56;98388.00;4188536;28;5780;-75
2024/01/31 14:31:23;;;;;;;;;;;;;;;11.03;57.56;98393.13;4189962;28;6637;-68
2024/01/31 14:33:28;;;;;;;;;;;;;;;11.03;57.79;98382.56;4191843;28;5724;-68
2024/01/31 14:35:31;;;;;;;;;;;;;;;11.02;57.74;98386.19;4196771;28;5707;-69
2024/01/31 14:37:34;;;;;;;;;;;;;;;11.03;57.67;98387.00;4199661;28;5675;-70
2024/01/31 14:39:37;;;;;;;;;;;;;;;11.03;57.61;98393.13;4204930;28;6544;-82
2024/01/31 14:41:42;;;;;;;;;;;;;;;11.02;57.51;98391.47;4196889;28;5765;-84
2024/01/31 14:43:45;;;;;;;;;;;;;;;11.02;57.56;98394.13;4191423;28;5698;-82
2024/01/31 14:45:47;;;;;;;;;;;;;;;10.98;57.54;98390.13;4194584;28;5783;-81
2024/01/31 14:47:50;;;;;;;;;;;;;;;10.97;57.59;98399.03;4190144;28;5766;-80
2024/01/31 14:49:54;;;;;;;;;;;;;;;11.00;57.22;98397.94;4201200;28;5777;-79
2024/01/31 14:51:58;;;;;;;;;;;;;;;10.99;57.25;98394.44;4203863;28;5858;-78
2024/01/31 14:54:00;;;;;;;;;;;;;;;11.01;57.09;98395.13;4195863;28;5897;-75
2024/01/31 14:56:05;;;;;;;;;;;;;;;11.01;56.63;98395.13;4201593;28;5698;-77
2024/01/31 14:58:08;;;;;;;;;;;;;;;10.94;56.41;98396.72;4198698;28;5898;-78
2024/01/31 15:00:12;;;;;;;;;;;;;;;10.92;56.62;98389.94;4192453;28;5827;-78
2024/01/31 15:02:15;;;;;;;;;;;;;;;10.90;56.85;98392.75;4194225;28;5825;-65
2024/01/31 15:04:18;;;;;;;;;;;;;;;10.89;56.87;98393.72;4194596;28;5801;-69
2024/01/31 15:06:23;;;;;;;;;;;;;;;10.90;56.80;98397.19;4191415;28;5782;-66
2024/01/31 15:08:27;;;;;;;;;;;;;;;10.88;56.72;98394.72;4194438;28;5855;-68
2024/01/31 15:12:55;;;;;;;;;;;;;;;10.88;56.47;98392.06;4194542;28;5703;-66
2024/01/31 15:14:59;;;;;;;;;;;;;;;10.89;56.90;98404.31;4201367;28;5781;-65
2024/01/31 15:17:02;;;;;;;;;;;;;;;10.89;56.67;98398.19;4192855;28;5678;-65
2024/01/31 20:33:49;;;;;;;;;;;;;;;10.22;56.73;98439.31;3540350;28;6943;-64
2024/01/31 20:40:04;;;;;;;;;;;;;;;10.20;56.95;98427.03;4193264;28;5837;-80
2024/01/31 20:42:07;;;;;;;;;;;;;;;10.19;56.93;98425.38;4196413;28;5679;-66
2024/01/31 20:44:10;;;;;;;;;;;;;;;10.20;56.66;98426.22;4200546;28;5691;-74
2024/01/31 20:46:16;;;;;;;;;;;;;;;10.20;56.75;98426.22;4200874;28;6372;-73
2024/01/31 20:48:19;;;;;;;;;;;;;;;10.19;57.04;98425.38;4201255;28;5688;-66
2024/01/31 20:50:36;;;;;;;;;;;;;;;10.21;56.80;98430.50;4202056;28;5707;-64
2024/01/31 20:52:40;;;;;;;;;;;;;;;10.22;56.81;98428.72;4188063;28;5888;-69
2024/01/31 20:54:43;;;;;;;;;;;;;;;10.23;56.73;98436.50;4195080;28;5793;-70
2024/01/31 20:56:46;;;;;;;;;;;;;;;10.22;56.64;98434.84;4189054;28;5906;-71
2024/01/31 20:58:49;;;;;;;;;;;;;;;10.22;56.89;98434.03;4194104;28;5795;-71
2024/01/31 21:00:52;;;;;;;;;;;;;;;10.23;56.75;98436.50;4194397;28;5761;-71
2024/01/31 21:02:55;;;;;;;;;;;;;;;10.24;56.94;98429.41;4191951;28;5857;-74
2024/01/31 21:04:58;;;;;;;;;;;;;;;10.23;56.70;98433.84;4194290;28;5829;-65
2024/01/31 21:07:03;;;;;;;;;;;;;;;10.23;56.73;98431.22;4184478;28;5832;-77
2024/01/31 21:09:06;;;;;;;;;;;;;;;10.23;56.70;98431.22;4181824;28;5849;-73
2024/01/31 21:11:09;;;;;;;;;;;;;;;10.23;56.65;98431.22;4192846;28;5702;-66
2024/01/31 21:13:15;;;;;;;;;;;;;;;10.23;56.82;98425.09;4192791;28;5675;-75
2024/01/31 21:15:18;;;;;;;;;;;;;;;10.24;57.02;98426.75;4196550;28;5865;-73
2024/01/31 21:17:21;;;;;;;;;;;;;;;10.24;57.07;98417.03;4192305;28;5695;-74
2024/01/31 21:19:23;;;;;;;;;;;;;;;10.24;56.64;98417.03;4194359;28;5865;-75
2024/01/31 21:21:27;;;;;;;;;;;;;;;10.22;56.80;98419.00;4199346;28;6405;-75
2024/01/31 21:23:32;;;;;;;;;;;;;;;10.24;56.99;98416.19;4193227;28;5735;-76
2024/01/31 21:25:35;;;;;;;;;;;;;;;10.24;56.91;98416.19;4193905;28;5822;-76
2024/01/31 21:27:38;;;;;;;;;;;;;;;10.25;57.13;98423.97;4195549;28;5806;-69
2024/01/31 21:29:42;;;;;;;;;;;;;;;10.24;57.00;98424.94;4190684;28;5719;-70
2024/01/31 21:31:45;;;;;;;;;;;;;;;10.24;56.72;98434.69;4197499;28;5853;-72
2024/01/31 21:33:48;;;;;;;;;;;;;;;10.23;56.63;98431.22;4199339;28;5676;-70
2024/01/31 21:35:50;;;;;;;;;;;;;;;10.23;57.15;98430.38;4192115;28;5781;-71
2024/01/31 21:37:54;;;;;;;;;;;;;;;10.23;57.19;98431.22;4194546;28;5825;-68
2024/01/31 21:39:58;;;;;;;;;;;;;;;10.23;56.71;98435.69;4199961;28;5683;-68
2024/01/31 21:42:02;;;;;;;;;;;;;;;10.23;56.88;98425.94;4199919;28;5790;-68
2024/01/31 21:44:05;;;;;;;;;;;;;;;10.22;56.96;98429.56;4196725;28;5818;-68
2024/01/31 21:46:08;;;;;;;;;;;;;;;10.20;57.07;98427.03;4199965;28;5762;-70
2024/01/31 21:48:11;;;;;;;;;;;;;;;10.21;56.84;98422.59;4199503;28;5694;-69
2024/01/31 21:50:14;;;;;;;;;;;;;;;10.20;56.86;98426.22;4195837;28;5800;-68
2024/01/31 21:52:19;;;;;;;;;;;;;;;10.20;57.16;98420.94;4195216;28;5786;-69
2024/01/31 21:54:22;;;;;;;;;;;;;;;10.19;57.02;98421.88;4194593;28;5727;-69
2024/01/31 21:56:25;;;;;;;;;;;;;;;10.19;56.76;98424.53;4196647;28;5743;-69
2024/01/31 21:58:28;;;;;;;;;;;;;;;10.19;56.79;98427.16;4195374;28;5798;-70
2024/01/31 22:00:30;;;;;;;;;;;;;;;10.19;56.86;98424.53;4199545;28;5767;-70
2024/01/31 22:02:33;;;;;;;;;;;;;;;10.18;56.77;98438.72;4199402;28;5869;-71
2024/01/31 22:04:36;;;;;;;;;;;;;;;10.17;56.77;98431.78;4199767;28;5777;-71
2024/01/31 22:06:42;;;;;;;;;;;;;;;10.17;57.10;98437.88;4199717;28;5698;-67
2024/01/31 22:08:46;;;;;;;;;;;;;;;10.16;56.77;98430.94;4194602;28;5703;-68
2024/01/31 22:10:49;;;;;;;;;;;;;;;10.16;56.97;98436.22;4198642;28;5707;-68
2024/01/31 22:12:54;;;;;;;;;;;;;;;10.16;56.80;98441.50;4193984;28;5813;-69
2024/01/31 22:14:57;;;;;;;;;;;;;;;10.15;57.06;98439.84;4192566;28;5671;-69
2024/01/31 22:17:00;;;;;;;;;;;;;;;10.16;56.78;98435.41;4199337;28;5770;-72
2024/01/31 22:19:03;;;;;;;;;;;;;;;10.15;56.70;98439.03;4198938;28;5675;-71
2024/01/31 22:21:06;;;;;;;;;;;;;;;10.15;56.72;98442.50;4198102;28;5785;-68
